createdAt,value
2018-04-19T00:06:53.774Z,50.06
2018-04-19T00:09:22.481Z,49.87
2018-04-19T00:11:51.136Z,49.40
2018-04-19T00:14:19.330Z,49.81
2018-04-19T00:16:47.583Z,49.84
2018-04-19T00:19:16.231Z,49.93
2018-04-19T00:21:44.488Z,49.89
2018-04-19T00:24:12.717Z,49.88
2018-04-19T00:26:41.334Z,49.43
2018-04-19T00:29:09.549Z,49.11
2018-04-19T00:31:37.778Z,48.51
2018-04-19T00:34:06.372Z,49.00
2018-04-19T00:36:34.568Z,48.18
2018-04-19T00:39:02.880Z,47.68
2018-04-19T00:41:31.467Z,47.26
2018-04-19T00:43:59.691Z,47.15
2018-04-19T00:46:28.164Z,46.58
2018-04-19T00:48:56.615Z,46.47
2018-04-19T00:51:24.845Z,46.84
2018-04-19T00:53:53.235Z,45.91
2018-04-19T00:56:21.754Z,45.76
2018-04-19T00:58:49.971Z,45.38
2018-04-19T01:01:18.389Z,45.18
2018-04-19T01:03:47.019Z,45.64
2018-04-19T01:06:15.301Z,45.22
2018-04-19T01:08:43.531Z,45.19
2018-04-19T01:11:11.966Z,45.58
2018-04-19T01:13:40.224Z,44.98
2018-04-19T01:16:08.518Z,44.82
2018-04-19T01:18:37.180Z,44.52
2018-04-19T01:21:05.410Z,44.57
2018-04-19T01:23:33.669Z,44.93
2018-04-19T01:26:02.287Z,44.30
2018-04-19T01:28:30.570Z,44.54
2018-04-19T01:30:58.842Z,44.49
2018-04-19T01:33:27.576Z,44.36
2018-04-19T01:36:07.580Z,44.54
2018-04-19T01:38:35.794Z,44.87
2018-04-19T01:41:04.094Z,44.82
2018-04-19T01:43:32.878Z,45.68
2018-04-19T01:46:01.082Z,47.03
2018-04-19T01:48:29.301Z,47.84
2018-04-19T01:50:57.841Z,48.66
2018-04-19T01:53:26.107Z,49.85
2018-04-19T01:55:54.512Z,50.05
2018-04-19T01:58:23.331Z,50.50
2018-04-19T02:00:51.543Z,50.32
2018-04-19T02:03:19.750Z,50.45
2018-04-19T02:05:48.315Z,50.25
2018-04-19T02:08:16.589Z,50.22
2018-04-19T02:10:44.794Z,50.51
2018-04-19T02:13:13.453Z,50.22
2018-04-19T02:15:41.689Z,50.33
2018-04-19T02:18:09.941Z,50.41
2018-04-19T02:20:38.596Z,50.36
2018-04-19T02:23:06.827Z,49.98
2018-04-19T02:25:35.028Z,49.76
2018-04-19T02:28:03.773Z,49.79
2018-04-19T02:30:32.027Z,49.71
2018-04-19T02:33:00.220Z,49.05
2018-04-19T02:35:28.963Z,48.97
2018-04-19T02:37:57.226Z,48.83
2018-04-19T02:40:25.454Z,48.51
2018-04-19T02:42:54.061Z,47.93
2018-04-19T02:45:22.307Z,47.64
2018-04-19T02:47:50.518Z,47.24
2018-04-19T02:50:19.153Z,47.43
2018-04-19T02:52:47.364Z,47.68
2018-04-19T02:55:15.559Z,47.62
2018-04-19T02:57:44.010Z,48.07
2018-04-19T03:00:12.215Z,47.94
2018-04-19T03:02:40.606Z,47.91
2018-04-19T03:05:09.205Z,47.91
2018-04-19T03:07:37.431Z,48.04
2018-04-19T03:10:05.730Z,48.15
2018-04-19T03:12:34.409Z,48.16
2018-04-19T03:15:02.633Z,48.26
2018-04-19T03:17:30.940Z,48.28
2018-04-19T03:19:59.480Z,48.43
2018-04-19T03:22:27.717Z,48.53
2018-04-19T03:24:56.028Z,48.67
2018-04-19T03:27:24.727Z,48.82
2018-04-19T03:29:52.931Z,48.81
2018-04-19T03:32:21.143Z,48.89
2018-04-19T03:34:49.767Z,49.01
2018-04-19T03:37:18.157Z,49.15
2018-04-19T03:39:46.337Z,49.42
2018-04-19T03:42:14.903Z,49.49
2018-04-19T03:44:43.118Z,49.75
2018-04-19T03:47:11.487Z,50.01
2018-04-19T03:49:40.034Z,49.99
2018-04-19T03:52:08.319Z,50.42
2018-04-19T03:54:36.661Z,50.55
2018-04-19T03:57:07.965Z,51.03
2018-04-19T03:59:36.760Z,51.30
2018-04-19T04:02:05.342Z,51.70
2018-04-19T04:04:33.601Z,51.77
2018-04-19T04:07:01.906Z,52.16
2018-04-19T04:09:30.444Z,52.42
2018-04-19T04:11:58.691Z,52.61
2018-04-19T04:14:27.070Z,52.85
2018-04-19T04:17:07.230Z,53.00
2018-04-19T04:19:47.305Z,53.27
2018-04-19T04:22:27.438Z,53.63
2018-04-19T04:24:56.154Z,53.75
2018-04-19T04:27:25.057Z,53.82
2018-04-19T04:29:53.377Z,53.90
2018-04-19T04:32:23.481Z,54.33
2018-04-19T04:34:52.231Z,54.42
2018-04-19T04:37:20.808Z,55.00
2018-04-19T04:39:49.299Z,54.57
2018-04-19T04:42:17.905Z,54.76
2018-04-19T04:44:46.411Z,54.91
2018-04-19T04:47:14.642Z,55.04
2018-04-19T04:49:43.156Z,55.07
2018-04-19T04:52:11.948Z,54.90
2018-04-19T04:54:40.180Z,54.95
2018-04-19T04:57:08.391Z,55.12
2018-04-19T04:59:37.126Z,55.21
2018-04-19T05:02:05.438Z,55.54
2018-04-19T05:04:33.641Z,55.52
2018-04-19T05:07:02.429Z,55.70
2018-04-19T05:09:30.647Z,55.90
2018-04-19T05:11:58.876Z,56.14
2018-04-19T05:14:27.714Z,56.01
2018-04-19T05:16:55.911Z,56.06
2018-04-19T05:19:24.136Z,55.99
2018-04-19T05:21:52.732Z,56.15
2018-04-19T05:24:20.997Z,55.88
2018-04-19T05:26:49.218Z,55.94
2018-04-19T05:29:17.834Z,55.89
2018-04-19T05:31:46.976Z,55.89
2018-04-19T05:34:15.187Z,55.72
2018-04-19T05:36:43.453Z,56.02
2018-04-19T05:39:12.128Z,55.45
2018-04-19T05:41:40.362Z,55.29
2018-04-19T05:44:08.579Z,55.10
2018-04-19T05:46:37.303Z,54.80
2018-04-19T05:49:05.534Z,54.52
2018-04-19T05:51:33.748Z,54.09
2018-04-19T05:54:02.315Z,53.85
2018-04-19T05:56:30.502Z,54.31
2018-04-19T05:58:58.729Z,53.51
2018-04-19T06:01:26.956Z,53.42
2018-04-19T06:03:55.148Z,53.99
2018-04-19T06:06:23.606Z,53.46
2018-04-19T06:08:51.838Z,53.04
2018-04-19T06:11:20.045Z,52.81
2018-04-19T06:13:48.870Z,52.77
2018-04-19T06:16:17.098Z,52.16
2018-04-19T06:18:45.315Z,52.16
2018-04-19T06:21:14.255Z,52.22
2018-04-19T06:23:42.968Z,51.82
2018-04-19T06:26:11.182Z,51.70
2018-04-19T06:28:39.422Z,51.43
2018-04-19T06:31:08.166Z,51.27
2018-04-19T06:33:36.352Z,51.29
2018-04-19T06:36:04.550Z,50.91
2018-04-19T06:38:33.175Z,50.43
2018-04-19T06:41:01.379Z,50.40
2018-04-19T06:43:29.628Z,50.36
2018-04-19T06:45:58.202Z,49.89
2018-04-19T06:48:26.407Z,49.70
2018-04-19T06:50:54.627Z,49.79
2018-04-19T06:53:23.340Z,49.27
2018-04-19T06:55:51.568Z,48.92
2018-04-19T06:58:19.799Z,49.31
2018-04-19T07:00:48.474Z,49.05
2018-04-19T07:03:16.671Z,48.62
2018-04-19T07:05:44.897Z,48.66
2018-04-19T07:08:13.651Z,48.26
2018-04-19T07:10:41.897Z,47.74
2018-04-19T07:13:10.085Z,46.93
2018-04-19T07:15:38.731Z,45.96
2018-04-19T07:18:06.926Z,45.99
2018-04-19T07:20:35.116Z,46.11
2018-04-19T07:23:03.318Z,44.92
2018-04-19T07:25:31.534Z,44.15
2018-04-19T07:28:00.119Z,44.01
2018-04-19T07:30:28.312Z,43.46
2018-04-19T07:32:56.503Z,42.92
2018-04-19T07:35:24.826Z,42.65
2018-04-19T07:37:53.047Z,41.99
2018-04-19T07:40:21.494Z,42.31
2018-04-19T07:42:50.072Z,41.69
2018-04-19T07:45:18.305Z,41.99
2018-04-19T07:47:46.612Z,41.30
2018-04-19T07:50:15.189Z,40.86
2018-04-19T07:52:43.380Z,40.28
2018-04-19T07:55:11.765Z,40.04
2018-04-19T07:57:40.014Z,39.00
2018-04-19T08:00:08.233Z,38.82
2018-04-19T08:02:36.446Z,38.17
2018-04-19T08:05:05.126Z,37.85
2018-04-19T08:07:33.346Z,36.89
2018-04-19T08:10:01.531Z,36.26
2018-04-19T08:12:30.249Z,36.35
2018-04-19T08:14:58.457Z,36.03
2018-04-19T08:17:26.679Z,35.93
2018-04-19T08:19:55.384Z,33.81
2018-04-19T08:22:23.601Z,34.80
2018-04-19T08:24:51.812Z,33.71
2018-04-19T08:27:20.412Z,33.23
2018-04-19T08:29:48.616Z,32.25
2018-04-19T08:32:16.826Z,32.67
2018-04-19T08:34:45.525Z,32.78
2018-04-19T08:37:13.737Z,31.88
2018-04-19T08:39:41.953Z,32.01
2018-04-19T08:42:10.194Z,32.21
2018-04-19T08:44:38.387Z,32.46
2018-04-19T08:47:06.809Z,32.49
2018-04-19T08:49:35.030Z,31.66
2018-04-19T08:52:03.236Z,31.84
2018-04-19T08:54:31.475Z,31.93
2018-04-19T08:56:59.741Z,31.66
2018-04-19T08:59:28.043Z,31.75
2018-04-19T09:01:56.676Z,31.92
2018-04-19T09:04:24.856Z,31.34
2018-04-19T09:06:53.176Z,32.13
2018-04-19T09:09:21.758Z,31.77
2018-04-19T09:11:49.981Z,31.35
2018-04-19T09:14:18.277Z,30.49
2018-04-19T09:16:46.925Z,30.10
2018-04-19T09:19:15.166Z,30.42
2018-04-19T09:21:43.433Z,30.41
2018-04-19T09:24:12.060Z,29.67
2018-04-19T09:26:40.266Z,29.56
2018-04-19T09:29:08.599Z,28.79
2018-04-19T09:31:37.108Z,29.38
2018-04-19T09:34:05.393Z,28.76
2018-04-19T09:36:33.698Z,27.57
2018-04-19T09:39:02.212Z,28.05
2018-04-19T09:41:30.426Z,27.54
2018-04-19T09:43:58.742Z,27.29
2018-04-19T09:46:27.287Z,27.28
2018-04-19T09:48:55.509Z,26.97
2018-04-19T09:51:23.760Z,25.83
2018-04-19T09:53:52.445Z,25.56
2018-04-19T09:56:20.630Z,25.99
2018-04-19T09:59:00.885Z,24.49
2018-04-19T10:01:29.409Z,25.04
2018-04-19T10:03:58.252Z,25.42
2018-04-19T10:06:26.585Z,25.66
2018-04-19T10:08:54.891Z,25.60
2018-04-19T10:11:23.599Z,24.89
2018-04-19T10:13:51.906Z,24.71
2018-04-19T10:16:20.172Z,24.43
2018-04-19T10:18:48.728Z,24.41
2018-04-19T10:21:16.992Z,24.48
2018-04-19T10:23:45.239Z,24.75
2018-04-19T10:26:13.927Z,24.64
2018-04-19T10:28:42.130Z,24.27
2018-04-19T10:31:10.955Z,23.93
2018-04-19T10:33:39.285Z,23.03
2018-04-19T10:36:07.949Z,23.22
2018-04-19T10:38:36.122Z,24.22
2018-04-19T10:41:04.365Z,23.14
2018-04-19T10:43:32.614Z,22.53
2018-04-19T10:46:00.818Z,22.66
2018-04-19T10:48:29.299Z,23.13
2018-04-19T10:50:57.515Z,23.16
2018-04-19T10:53:25.697Z,22.55
2018-04-19T10:55:54.045Z,22.92
2018-04-19T10:58:22.251Z,22.52
2018-04-19T11:00:50.565Z,22.91
2018-04-19T11:03:19.148Z,22.80
2018-04-19T11:05:47.346Z,22.93
2018-04-19T11:08:16.701Z,21.44
2018-04-19T11:10:45.004Z,21.29
2018-04-19T11:13:13.768Z,21.48
2018-04-19T11:15:42.073Z,21.66
2018-04-19T11:18:10.312Z,20.54
2018-04-19T11:20:38.877Z,21.94
2018-04-19T11:23:07.072Z,21.20
2018-04-19T11:25:35.293Z,21.03
2018-04-19T11:28:03.975Z,20.87
2018-04-19T11:30:32.241Z,20.61
2018-04-19T11:33:00.453Z,20.00
2018-04-19T11:35:29.123Z,19.91
2018-04-19T11:37:57.326Z,19.35
2018-04-19T11:40:25.663Z,19.66
2018-04-19T11:42:54.433Z,19.99
2018-04-19T11:45:22.642Z,20.47
2018-04-19T11:47:50.860Z,21.09
2018-04-19T11:50:19.423Z,20.30
2018-04-19T11:52:47.624Z,20.65
2018-04-19T11:55:15.861Z,20.78
2018-04-19T11:57:44.587Z,21.14
2018-04-19T12:00:12.815Z,20.22
2018-04-19T12:02:41.013Z,19.90
2018-04-19T12:05:09.655Z,19.39
2018-04-19T12:07:37.881Z,19.11
2018-04-19T12:10:06.120Z,17.56
2018-04-19T12:12:34.907Z,17.17
2018-04-19T12:15:03.116Z,17.30
2018-04-19T12:17:31.346Z,16.84
2018-04-19T12:19:59.945Z,16.99
2018-04-19T12:22:28.148Z,16.70
2018-04-19T12:24:56.350Z,16.54
2018-04-19T12:27:25.063Z,16.63
2018-04-19T12:29:53.284Z,16.11
2018-04-19T12:32:21.510Z,15.51
2018-04-19T12:34:50.148Z,15.19
2018-04-19T12:37:18.370Z,14.75
2018-04-19T12:39:46.613Z,14.20
2018-04-19T12:42:15.383Z,14.30
2018-04-19T12:44:43.596Z,14.07
2018-04-19T12:47:11.802Z,13.63
2018-04-19T12:49:40.417Z,13.02
2018-04-19T12:52:08.643Z,12.78
2018-04-19T12:54:36.859Z,13.29
2018-04-19T12:57:05.528Z,12.71
2018-04-19T12:59:33.742Z,12.51
2018-04-19T13:02:01.993Z,13.18
2018-04-19T13:04:30.642Z,13.61
2018-04-19T13:06:58.846Z,12.68
2018-04-19T13:09:27.308Z,12.19
2018-04-19T13:11:55.785Z,12.25
2018-04-19T13:14:24.007Z,12.29
2018-04-19T13:16:52.214Z,11.58
2018-04-19T13:19:20.988Z,11.87
2018-04-19T13:21:49.205Z,12.55
2018-04-19T13:24:17.451Z,12.68
2018-04-19T13:26:45.995Z,13.13
2018-04-19T13:29:14.223Z,11.73
2018-04-19T13:31:42.427Z,11.75
2018-04-19T13:34:11.181Z,11.85
2018-04-19T13:36:39.361Z,12.05
2018-04-19T13:39:07.571Z,12.26
2018-04-19T13:41:36.689Z,12.13
2018-04-19T13:44:04.909Z,12.17
2018-04-19T13:46:33.329Z,11.84
2018-04-19T13:51:44.347Z,11.11
2018-04-19T13:54:12.930Z,11.26
2018-04-19T13:56:41.151Z,10.90
2018-04-19T13:59:09.413Z,11.20
2018-04-19T14:01:38.065Z,11.30
2018-04-19T14:04:06.312Z,11.34
2018-04-19T14:06:34.525Z,11.25
2018-04-19T14:09:03.628Z,11.39
2018-04-19T14:11:32.133Z,11.46
2018-04-19T14:14:00.351Z,11.66
2018-04-19T14:16:28.579Z,11.79
2018-04-19T14:18:57.258Z,11.59
2018-04-19T14:21:25.448Z,11.81
2018-04-19T14:23:53.640Z,11.65
2018-04-19T14:26:22.290Z,12.20
2018-04-19T14:28:50.469Z,12.59
2018-04-19T14:31:18.945Z,11.73
2018-04-19T14:33:47.532Z,11.80
2018-04-19T14:36:15.751Z,11.12
2018-04-19T14:38:43.994Z,11.79
2018-04-19T14:41:12.680Z,10.59
2018-04-19T14:43:40.942Z,10.54
2018-04-19T14:46:09.128Z,11.11
2018-04-19T14:48:37.745Z,11.97
2018-04-19T14:51:05.978Z,11.67
2018-04-19T14:53:34.896Z,11.59
2018-04-19T14:56:03.486Z,11.69
2018-04-19T14:58:31.693Z,11.10
2018-04-19T15:01:00.087Z,9.57
2018-04-19T15:03:28.735Z,9.54
2018-04-19T15:05:57.159Z,10.35
2018-04-19T15:08:25.398Z,12.05
2018-04-19T15:10:53.812Z,12.58
2018-04-19T15:13:22.043Z,12.62
2018-04-19T15:15:50.228Z,13.37
2018-04-19T15:18:18.860Z,13.58
2018-04-19T15:20:47.095Z,14.41
2018-04-19T15:23:15.451Z,13.62
2018-04-19T15:25:44.011Z,13.79
2018-04-19T15:28:12.212Z,14.27
2018-04-19T15:30:40.863Z,14.69
2018-04-19T15:33:09.053Z,20.26
2018-04-19T15:35:37.275Z,22.46
2018-04-19T15:38:05.488Z,17.91
2018-04-19T15:40:34.360Z,21.42
2018-04-19T15:43:02.573Z,21.57
2018-04-19T15:45:31.586Z,25.05
2018-04-19T15:48:00.528Z,26.01
2018-04-19T15:50:28.804Z,25.82
2018-04-19T15:52:57.017Z,27.85
2018-04-19T15:55:25.877Z,27.02
2018-04-19T15:57:54.127Z,25.30
2018-04-19T16:00:22.387Z,22.73
2018-04-19T16:02:51.174Z,22.17
2018-04-19T16:05:19.869Z,21.18
2018-04-19T16:07:48.044Z,19.77
2018-04-19T16:10:16.329Z,20.61
2018-04-19T16:12:45.017Z,19.53
2018-04-19T16:15:13.227Z,19.66
2018-04-19T16:17:41.465Z,19.59
2018-04-19T16:20:10.066Z,19.82
2018-04-19T16:22:38.253Z,20.01
2018-04-19T16:25:06.453Z,20.13
2018-04-19T16:27:35.213Z,20.05
2018-04-19T16:30:03.434Z,19.52
2018-04-19T16:32:31.690Z,18.97
2018-04-19T16:35:00.423Z,19.02
2018-04-19T16:37:28.663Z,19.32
2018-04-19T16:39:57.490Z,18.89
2018-04-19T16:42:26.152Z,19.14
2018-04-19T16:44:54.407Z,18.70
2018-04-19T16:47:22.602Z,19.20
2018-04-19T16:49:51.174Z,19.84
2018-04-19T16:52:19.409Z,19.29
2018-04-19T16:54:47.807Z,20.01
2018-04-19T16:57:16.677Z,18.85
2018-04-19T16:59:44.952Z,19.28
2018-04-19T17:02:13.187Z,19.80
2018-04-19T17:04:41.882Z,20.08
2018-04-19T17:07:10.087Z,19.69
2018-04-19T17:09:38.317Z,20.26
2018-04-19T17:12:06.880Z,20.21
2018-04-19T17:14:35.171Z,20.30
2018-04-19T17:17:03.383Z,19.97
2018-04-19T17:19:32.072Z,20.55
2018-04-19T17:22:00.319Z,20.32
2018-04-19T17:24:28.493Z,20.43
2018-04-19T17:26:57.126Z,24.51
2018-04-19T17:29:25.354Z,23.35
2018-04-19T17:31:53.749Z,24.78
2018-04-19T17:34:22.237Z,27.28
2018-04-19T17:36:50.453Z,24.59
2018-04-19T17:39:18.887Z,24.36
2018-04-19T17:41:47.714Z,24.40
2018-04-19T17:44:15.960Z,24.46
2018-04-19T17:46:44.147Z,24.51
2018-04-19T17:49:12.742Z,23.92
2018-04-19T17:51:41.025Z,24.75
2018-04-19T17:54:09.243Z,24.11
2018-04-19T17:56:37.806Z,23.90
2018-04-19T17:59:06.044Z,23.49
2018-04-19T18:01:34.277Z,23.86
2018-04-19T18:04:03.218Z,24.22
2018-04-19T18:06:32.057Z,24.45
2018-04-19T18:09:00.249Z,23.65
2018-04-19T18:11:28.508Z,25.74
2018-04-19T18:13:57.191Z,26.42
2018-04-19T18:16:25.395Z,24.38
2018-04-19T18:18:53.600Z,26.20
2018-04-19T18:21:22.317Z,25.11
2018-04-19T18:23:50.565Z,24.70
2018-04-19T18:26:18.777Z,25.18
2018-04-19T18:28:47.432Z,25.76
2018-04-19T18:31:15.639Z,24.25
2018-04-19T18:33:43.849Z,28.67
2018-04-19T18:36:12.491Z,25.91
2018-04-19T18:38:41.453Z,26.20
2018-04-19T18:41:09.659Z,26.50
2018-04-19T18:43:37.911Z,28.64
2018-04-19T18:46:07.112Z,29.97
2018-04-19T18:48:35.459Z,31.52
2018-04-19T18:51:04.081Z,32.11
2018-04-19T18:53:32.297Z,32.62
2018-04-19T18:56:00.508Z,33.61
2018-04-19T18:58:29.070Z,32.87
2018-04-19T19:00:57.285Z,33.43
2018-04-19T19:03:25.485Z,33.74
2018-04-19T19:05:54.223Z,34.27
2018-04-19T19:08:22.483Z,34.81
2018-04-19T19:10:50.671Z,35.04
2018-04-19T19:13:19.419Z,34.49
2018-04-19T19:19:12.584Z,35.10
2018-04-19T19:21:40.777Z,35.27
2018-04-19T19:24:09.629Z,35.64
2018-04-19T19:26:37.842Z,35.66
2018-04-19T19:29:06.023Z,35.34
2018-04-19T19:31:34.744Z,35.40
2018-04-19T19:34:02.975Z,35.61
2018-04-19T19:36:31.247Z,33.87
2018-04-19T19:38:59.926Z,32.99
2018-04-19T19:41:28.195Z,32.63
2018-04-19T19:43:56.425Z,31.52
2018-04-19T19:46:24.981Z,31.99
2018-04-19T19:48:53.224Z,31.46
2018-04-19T19:51:21.469Z,31.34
2018-04-19T19:53:50.089Z,31.25
2018-04-19T19:56:18.332Z,32.27
2018-04-19T19:58:46.606Z,33.55
2018-04-19T20:01:15.174Z,32.78
2018-04-19T20:03:43.422Z,32.40
2018-04-19T20:06:11.658Z,33.19
2018-04-19T20:08:40.219Z,32.61
2018-04-19T20:11:08.573Z,35.31
2018-04-19T20:13:36.770Z,35.19
2018-04-19T20:16:05.347Z,33.96
2018-04-19T20:18:33.601Z,34.40
2018-04-19T20:21:01.829Z,33.12
2018-04-19T20:23:30.526Z,33.93
2018-04-19T20:25:58.752Z,34.12
2018-04-19T20:28:26.937Z,33.80
2018-04-19T20:30:55.575Z,34.26
2018-04-19T20:33:23.842Z,33.28
2018-04-19T20:35:52.904Z,33.13
2018-04-19T20:38:21.147Z,32.88
2018-04-19T20:40:49.703Z,34.03
2018-04-19T20:43:17.906Z,34.73
2018-04-19T20:45:46.165Z,35.05
2018-04-19T20:48:14.973Z,34.53
2018-04-19T20:50:43.230Z,34.96
2018-04-19T20:53:12.019Z,34.04
2018-04-19T20:55:40.501Z,33.65
2018-04-19T20:58:08.758Z,37.53
2018-04-19T21:00:37.081Z,35.82
2018-04-19T21:03:05.782Z,34.67
2018-04-19T21:05:33.996Z,34.83
2018-04-19T21:08:02.199Z,34.25
2018-04-19T21:10:30.715Z,36.95
2018-04-19T21:13:00.127Z,34.58
2018-04-19T21:15:31.533Z,35.76
2018-04-19T21:18:00.293Z,34.94
2018-04-19T21:20:28.490Z,36.07
2018-04-19T21:22:56.729Z,36.38
2018-04-19T21:25:25.326Z,35.43
2018-04-19T21:27:53.513Z,36.04
2018-04-19T21:30:21.775Z,34.60
2018-04-19T21:32:50.544Z,33.93
2018-04-19T21:35:18.863Z,34.12
2018-04-19T21:37:47.698Z,33.79
2018-04-19T21:40:16.143Z,33.91
2018-04-19T21:42:44.347Z,34.23
2018-04-19T21:45:12.714Z,34.56
2018-04-19T21:47:41.307Z,34.23
2018-04-19T21:50:09.546Z,34.16
2018-04-19T21:52:38.046Z,34.81
2018-04-19T21:55:06.899Z,35.47
2018-04-19T21:57:35.115Z,35.21
2018-04-19T22:00:03.335Z,35.24
2018-04-19T22:02:31.969Z,35.26
2018-04-19T22:05:00.186Z,35.97
2018-04-19T22:07:28.391Z,36.05
2018-04-19T22:09:57.098Z,35.89
2018-04-19T22:12:25.303Z,36.00
2018-04-19T22:14:53.522Z,35.78
2018-04-19T22:17:22.299Z,35.88
2018-04-19T22:19:51.232Z,36.11
2018-04-19T22:22:19.438Z,36.06
2018-04-19T22:24:49.023Z,35.92
2018-04-19T22:27:17.717Z,36.09
2018-04-19T22:29:46.997Z,36.18
2018-04-19T22:32:15.236Z,36.48
2018-04-19T22:34:43.597Z,36.00
2018-04-19T22:37:12.120Z,36.02
2018-04-19T22:39:40.391Z,35.53
2018-04-19T22:42:08.709Z,35.52
2018-04-19T22:44:37.296Z,35.52
2018-04-19T22:47:05.603Z,35.28
2018-04-19T22:49:33.778Z,35.55
2018-04-19T22:52:02.334Z,35.33
2018-04-19T22:54:30.564Z,35.51
2018-04-19T22:56:58.957Z,35.24
2018-04-19T22:59:27.506Z,35.08
2018-04-19T23:01:55.721Z,35.26
2018-04-19T23:04:24.130Z,35.22
2018-04-19T23:06:52.667Z,35.50
2018-04-19T23:09:20.922Z,35.19
2018-04-19T23:11:50.121Z,35.41
2018-04-19T23:14:18.360Z,35.82
2018-04-19T23:16:47.109Z,35.91
2018-04-19T23:19:15.351Z,35.85
2018-04-19T23:21:43.606Z,36.33
2018-04-19T23:24:12.261Z,35.99
2018-04-19T23:26:40.489Z,36.60
2018-04-19T23:29:09.310Z,36.11
2018-04-19T23:31:38.026Z,36.13
2018-04-19T23:34:06.221Z,36.47
2018-04-19T23:36:34.685Z,36.27
2018-04-19T23:39:03.296Z,36.44
2018-04-19T23:41:31.517Z,36.54
2018-04-19T23:43:59.713Z,36.40
2018-04-19T23:46:28.295Z,36.66
2018-04-19T23:48:56.514Z,36.95
2018-04-19T23:51:24.819Z,36.97
2018-04-19T23:53:53.419Z,36.94
2018-04-19T23:56:21.638Z,37.63
2018-04-19T23:58:50.110Z,37.27
